sensor_id;sensor_type;location;lat;lon;timestamp;P1;durP1;ratioP1;P2;durP2;ratioP2
11865;SDS011;5992;52.744;6.898;2024-02-04T00:01:59;3.10;;;2.37;;
11865;SDS011;5992;52.744;6.898;2024-02-04T00:05:11;6.03;;;3.00;;
11865;SDS011;5992;52.744;6.898;2024-02-04T00:08:23;7.23;;;3.00;;
11865;SDS011;5992;52.744;6.898;2024-02-04T00:11:36;9.10;;;2.60;;
11865;SDS011;5992;52.744;6.898;2024-02-04T00:14:38;8.90;;;3.47;;
11865;SDS011;5992;52.744;6.898;2024-02-04T00:18:02;4.47;;;2.90;;
11865;SDS011;5992;52.744;6.898;2024-02-04T00:21:04;8.33;;;3.37;;
11865;SDS011;5992;52.744;6.898;2024-02-04T00:24:17;10.30;;;3.80;;
11865;SDS011;5992;52.744;6.898;2024-02-04T00:27:18;9.40;;;3.10;;
11865;SDS011;5992;52.744;6.898;2024-02-04T00:30:49;7.97;;;3.23;;
11865;SDS011;5992;52.744;6.898;2024-02-04T00:34:01;7.37;;;3.17;;
11865;SDS011;5992;52.744;6.898;2024-02-04T00:37:14;3.80;;;2.90;;
11865;SDS011;5992;52.744;6.898;2024-02-04T00:40:14;8.53;;;3.53;;
11865;SDS011;5992;52.744;6.898;2024-02-04T00:43:26;8.70;;;3.80;;
11865;SDS011;5992;52.744;6.898;2024-02-04T00:46:28;6.30;;;2.93;;
11865;SDS011;5992;52.744;6.898;2024-02-04T00:49:52;6.17;;;2.23;;
11865;SDS011;5992;52.744;6.898;2024-02-04T00:53:05;8.57;;;3.43;;
11865;SDS011;5992;52.744;6.898;2024-02-04T00:56:17;8.40;;;3.40;;
11865;SDS011;5992;52.744;6.898;2024-02-04T00:59:41;6.15;;;3.45;;
11865;SDS011;5992;52.744;6.898;2024-02-04T01:02:55;5.25;;;2.65;;
11865;SDS011;5992;52.744;6.898;2024-02-04T01:06:06;3.53;;;2.30;;
11865;SDS011;5992;52.744;6.898;2024-02-04T01:09:19;9.87;;;3.47;;
11865;SDS011;5992;52.744;6.898;2024-02-04T01:12:18;7.27;;;2.80;;
11865;SDS011;5992;52.744;6.898;2024-02-04T01:15:30;10.10;;;4.43;;
11865;SDS011;5992;52.744;6.898;2024-02-04T01:18:32;4.43;;;3.07;;
11865;SDS011;5992;52.744;6.898;2024-02-04T01:21:57;5.65;;;2.60;;
11865;SDS011;5992;52.744;6.898;2024-02-04T01:25:10;6.60;;;3.20;;
11865;SDS011;5992;52.744;6.898;2024-02-04T01:28:23;5.67;;;2.70;;
11865;SDS011;5992;52.744;6.898;2024-02-04T01:31:23;5.77;;;2.73;;
11865;SDS011;5992;52.744;6.898;2024-02-04T01:34:36;12.30;;;3.80;;
11865;SDS011;5992;52.744;6.898;2024-02-04T01:37:49;6.97;;;3.70;;
11865;SDS011;5992;52.744;6.898;2024-02-04T01:41:01;6.27;;;3.30;;
11865;SDS011;5992;52.744;6.898;2024-02-04T01:44:01;9.70;;;3.30;;
11865;SDS011;5992;52.744;6.898;2024-02-04T01:47:13;5.03;;;2.90;;
11865;SDS011;5992;52.744;6.898;2024-02-04T01:50:38;8.23;;;3.07;;
11865;SDS011;5992;52.744;6.898;2024-02-04T01:54:03;9.60;;;2.80;;
11865;SDS011;5992;52.744;6.898;2024-02-04T01:57:15;9.75;;;3.30;;
11865;SDS011;5992;52.744;6.898;2024-02-04T02:00:40;8.05;;;2.50;;
11865;SDS011;5992;52.744;6.898;2024-02-04T02:04:05;6.95;;;2.60;;
11865;SDS011;5992;52.744;6.898;2024-02-04T02:07:06;4.60;;;2.20;;
11865;SDS011;5992;52.744;6.898;2024-02-04T02:10:33;7.33;;;2.53;;
11865;SDS011;5992;52.744;6.898;2024-02-04T02:13:45;9.53;;;2.37;;
11865;SDS011;5992;52.744;6.898;2024-02-04T02:17:10;9.80;;;2.60;;
11865;SDS011;5992;52.744;6.898;2024-02-04T02:20:36;5.05;;;2.70;;
11865;SDS011;5992;52.744;6.898;2024-02-04T02:24:03;7.07;;;2.17;;
11865;SDS011;5992;52.744;6.898;2024-02-04T02:27:28;5.00;;;2.20;;
11865;SDS011;5992;52.744;6.898;2024-02-04T02:30:52;5.65;;;1.90;;
11865;SDS011;5992;52.744;6.898;2024-02-04T02:33:52;5.17;;;2.00;;
11865;SDS011;5992;52.744;6.898;2024-02-04T02:37:24;6.30;;;2.00;;
11865;SDS011;5992;52.744;6.898;2024-02-04T02:40:29;4.17;;;1.73;;
11865;SDS011;5992;52.744;6.898;2024-02-04T02:43:55;5.03;;;2.03;;
11865;SDS011;5992;52.744;6.898;2024-02-04T02:47:07;3.43;;;2.00;;
11865;SDS011;5992;52.744;6.898;2024-02-04T02:50:31;4.33;;;2.23;;
11865;SDS011;5992;52.744;6.898;2024-02-04T02:53:31;8.50;;;2.10;;
11865;SDS011;5992;52.744;6.898;2024-02-04T02:56:43;4.90;;;1.93;;
11865;SDS011;5992;52.744;6.898;2024-02-04T02:59:44;1.80;;;1.70;;
11865;SDS011;5992;52.744;6.898;2024-02-04T03:03:09;2.73;;;2.27;;
11865;SDS011;5992;52.744;6.898;2024-02-04T03:06:09;5.57;;;2.40;;
11865;SDS011;5992;52.744;6.898;2024-02-04T03:09:21;11.13;;;3.20;;
11865;SDS011;5992;52.744;6.898;2024-02-04T03:12:21;4.80;;;2.70;;
11865;SDS011;5992;52.744;6.898;2024-02-04T03:15:34;7.35;;;3.25;;
11865;SDS011;5992;52.744;6.898;2024-02-04T03:18:58;5.53;;;2.30;;
11865;SDS011;5992;52.744;6.898;2024-02-04T03:22:10;4.97;;;2.57;;
11865;SDS011;5992;52.744;6.898;2024-02-04T03:25:22;8.15;;;2.80;;
11865;SDS011;5992;52.744;6.898;2024-02-04T03:28:36;9.33;;;2.70;;
11865;SDS011;5992;52.744;6.898;2024-02-04T03:31:52;7.47;;;2.70;;
11865;SDS011;5992;52.744;6.898;2024-02-04T03:35:17;5.45;;;2.60;;
11865;SDS011;5992;52.744;6.898;2024-02-04T03:38:17;7.20;;;3.07;;
11865;SDS011;5992;52.744;6.898;2024-02-04T03:41:29;4.70;;;3.30;;
11865;SDS011;5992;52.744;6.898;2024-02-04T03:44:41;5.80;;;2.90;;
11865;SDS011;5992;52.744;6.898;2024-02-04T03:48:07;6.20;;;2.90;;
11865;SDS011;5992;52.744;6.898;2024-02-04T03:51:19;4.60;;;2.30;;
11865;SDS011;5992;52.744;6.898;2024-02-04T03:54:31;5.13;;;2.73;;
11865;SDS011;5992;52.744;6.898;2024-02-04T03:57:43;7.93;;;3.07;;
11865;SDS011;5992;52.744;6.898;2024-02-04T04:00:55;6.90;;;2.45;;
11865;SDS011;5992;52.744;6.898;2024-02-04T04:04:08;6.10;;;2.40;;
11865;SDS011;5992;52.744;6.898;2024-02-04T04:07:21;5.67;;;2.40;;
11865;SDS011;5992;52.744;6.898;2024-02-04T04:10:34;4.63;;;2.13;;
11865;SDS011;5992;52.744;6.898;2024-02-04T04:13:34;2.60;;;2.10;;
11865;SDS011;5992;52.744;6.898;2024-02-04T04:16:58;6.87;;;2.77;;
11865;SDS011;5992;52.744;6.898;2024-02-04T04:19:59;5.37;;;2.07;;
11865;SDS011;5992;52.744;6.898;2024-02-04T04:23:24;3.40;;;2.50;;
11865;SDS011;5992;52.744;6.898;2024-02-04T04:26:25;3.40;;;2.20;;
11865;SDS011;5992;52.744;6.898;2024-02-04T04:29:37;12.20;;;2.73;;
11865;SDS011;5992;52.744;6.898;2024-02-04T04:32:37;5.50;;;2.15;;
11865;SDS011;5992;52.744;6.898;2024-02-04T04:35:51;8.10;;;2.55;;
11865;SDS011;5992;52.744;6.898;2024-02-04T04:39:03;4.17;;;1.83;;
11865;SDS011;5992;52.744;6.898;2024-02-04T04:42:15;2.10;;;1.77;;
11865;SDS011;5992;52.744;6.898;2024-02-04T04:45:15;4.45;;;2.00;;
11865;SDS011;5992;52.744;6.898;2024-02-04T04:48:27;3.67;;;1.97;;
11865;SDS011;5992;52.744;6.898;2024-02-04T04:51:29;5.30;;;1.50;;
11865;SDS011;5992;52.744;6.898;2024-02-04T04:54:54;3.30;;;1.30;;
11865;SDS011;5992;52.744;6.898;2024-02-04T04:58:06;2.00;;;1.67;;
11865;SDS011;5992;52.744;6.898;2024-02-04T05:01:18;4.60;;;1.60;;
11865;SDS011;5992;52.744;6.898;2024-02-04T05:04:18;4.27;;;1.53;;
11865;SDS011;5992;52.744;6.898;2024-02-04T05:07:33;4.70;;;1.45;;
11865;SDS011;5992;52.744;6.898;2024-02-04T05:10:45;2.93;;;1.50;;
11865;SDS011;5992;52.744;6.898;2024-02-04T05:13:57;5.67;;;1.50;;
11865;SDS011;5992;52.744;6.898;2024-02-04T05:17:09;2.60;;;1.80;;
11865;SDS011;5992;52.744;6.898;2024-02-04T05:20:21;6.53;;;1.83;;
11865;SDS011;5992;52.744;6.898;2024-02-04T05:23:23;5.67;;;1.50;;
11865;SDS011;5992;52.744;6.898;2024-02-04T05:26:46;7.70;;;1.63;;
11865;SDS011;5992;52.744;6.898;2024-02-04T05:29:46;6.15;;;1.50;;
11865;SDS011;5992;52.744;6.898;2024-02-04T05:32:58;5.07;;;1.40;;
11865;SDS011;5992;52.744;6.898;2024-02-04T05:35:58;6.15;;;1.85;;
11865;SDS011;5992;52.744;6.898;2024-02-04T05:39:12;5.43;;;1.73;;
11865;SDS011;5992;52.744;6.898;2024-02-04T05:42:24;6.13;;;1.50;;
11865;SDS011;5992;52.744;6.898;2024-02-04T05:45:36;3.50;;;1.10;;
11865;SDS011;5992;52.744;6.898;2024-02-04T05:48:48;2.93;;;1.37;;
11865;SDS011;5992;52.744;6.898;2024-02-04T05:52:00;3.30;;;1.80;;
11865;SDS011;5992;52.744;6.898;2024-02-04T05:55:02;3.63;;;1.40;;
11865;SDS011;5992;52.744;6.898;2024-02-04T05:58:26;7.25;;;1.65;;
11865;SDS011;5992;52.744;6.898;2024-02-04T06:01:26;3.70;;;1.40;;
11865;SDS011;5992;52.744;6.898;2024-02-04T06:04:39;8.35;;;1.70;;
11865;SDS011;5992;52.744;6.898;2024-02-04T06:07:39;3.83;;;1.40;;
11865;SDS011;5992;52.744;6.898;2024-02-04T06:11:05;6.00;;;1.10;;
11865;SDS011;5992;52.744;6.898;2024-02-04T06:14:17;4.97;;;1.73;;
11865;SDS011;5992;52.744;6.898;2024-02-04T06:17:29;2.53;;;1.13;;
11865;SDS011;5992;52.744;6.898;2024-02-04T06:20:29;4.00;;;1.70;;
11865;SDS011;5992;52.744;6.898;2024-02-04T06:23:42;5.13;;;1.20;;
11865;SDS011;5992;52.744;6.898;2024-02-04T06:26:44;2.43;;;1.77;;
11865;SDS011;5992;52.744;6.898;2024-02-04T06:30:09;4.93;;;1.20;;
11865;SDS011;5992;52.744;6.898;2024-02-04T06:33:09;7.73;;;1.40;;
11865;SDS011;5992;52.744;6.898;2024-02-04T06:36:22;7.73;;;1.73;;
11865;SDS011;5992;52.744;6.898;2024-02-04T06:39:22;4.87;;;1.27;;
11865;SDS011;5992;52.744;6.898;2024-02-04T06:42:36;6.90;;;2.03;;
11865;SDS011;5992;52.744;6.898;2024-02-04T06:45:48;4.60;;;1.35;;
11865;SDS011;5992;52.744;6.898;2024-02-04T06:49:00;3.77;;;1.30;;
11865;SDS011;5992;52.744;6.898;2024-02-04T06:52:00;4.90;;;1.30;;
11865;SDS011;5992;52.744;6.898;2024-02-04T06:55:13;9.60;;;1.90;;
11865;SDS011;5992;52.744;6.898;2024-02-04T06:58:26;6.55;;;1.20;;
11865;SDS011;5992;52.744;6.898;2024-02-04T07:01:51;9.97;;;1.67;;
11865;SDS011;5992;52.744;6.898;2024-02-04T07:04:52;3.50;;;1.20;;
11865;SDS011;5992;52.744;6.898;2024-02-04T07:08:17;5.75;;;1.50;;
11865;SDS011;5992;52.744;6.898;2024-02-04T07:11:29;2.57;;;1.00;;
11865;SDS011;5992;52.744;6.898;2024-02-04T07:14:54;8.80;;;2.30;;
11865;SDS011;5992;52.744;6.898;2024-02-04T07:18:07;4.23;;;1.60;;
11865;SDS011;5992;52.744;6.898;2024-02-04T07:21:20;7.20;;;1.47;;
11865;SDS011;5992;52.744;6.898;2024-02-04T07:24:20;13.13;;;2.47;;
11865;SDS011;5992;52.744;6.898;2024-02-04T07:27:32;6.90;;;1.60;;
11865;SDS011;5992;52.744;6.898;2024-02-04T07:30:33;5.83;;;1.43;;
11865;SDS011;5992;52.744;6.898;2024-02-04T07:33:58;4.93;;;1.50;;
11865;SDS011;5992;52.744;6.898;2024-02-04T07:36:58;4.27;;;1.30;;
11865;SDS011;5992;52.744;6.898;2024-02-04T07:40:10;3.83;;;1.10;;
11865;SDS011;5992;52.744;6.898;2024-02-04T07:43:11;13.55;;;2.35;;
11865;SDS011;5992;52.744;6.898;2024-02-04T07:46:36;7.10;;;1.55;;
11865;SDS011;5992;52.744;6.898;2024-02-04T07:49:48;7.40;;;1.53;;
11865;SDS011;5992;52.744;6.898;2024-02-04T07:53:01;6.33;;;1.50;;
11865;SDS011;5992;52.744;6.898;2024-02-04T07:56:01;10.77;;;1.97;;
11865;SDS011;5992;52.744;6.898;2024-02-04T07:59:14;10.30;;;2.15;;
11865;SDS011;5992;52.744;6.898;2024-02-04T08:02:15;8.05;;;2.20;;
11865;SDS011;5992;52.744;6.898;2024-02-04T08:05:40;6.10;;;2.20;;
11865;SDS011;5992;52.744;6.898;2024-02-04T08:08:40;6.25;;;1.30;;
11865;SDS011;5992;52.744;6.898;2024-02-04T08:11:53;5.20;;;1.45;;
11865;SDS011;5992;52.744;6.898;2024-02-04T08:14:53;4.45;;;1.15;;
11865;SDS011;5992;52.744;6.898;2024-02-04T08:18:07;9.63;;;2.00;;
11865;SDS011;5992;52.744;6.898;2024-02-04T08:21:19;8.57;;;1.70;;
11865;SDS011;5992;52.744;6.898;2024-02-04T08:24:32;5.30;;;1.30;;
11865;SDS011;5992;52.744;6.898;2024-02-04T08:27:32;3.65;;;1.50;;
11865;SDS011;5992;52.744;6.898;2024-02-04T08:30:45;4.30;;;1.20;;
11865;SDS011;5992;52.744;6.898;2024-02-04T08:33:46;9.93;;;2.40;;
11865;SDS011;5992;52.744;6.898;2024-02-04T08:37:11;8.00;;;1.90;;
11865;SDS011;5992;52.744;6.898;2024-02-04T08:40:11;4.85;;;2.05;;
11865;SDS011;5992;52.744;6.898;2024-02-04T08:43:35;8.05;;;1.80;;
11865;SDS011;5992;52.744;6.898;2024-02-04T08:46:35;4.57;;;1.67;;
11865;SDS011;5992;52.744;6.898;2024-02-04T08:49:49;6.20;;;1.65;;
11865;SDS011;5992;52.744;6.898;2024-02-04T08:53:02;7.60;;;2.05;;
11865;SDS011;5992;52.744;6.898;2024-02-04T08:56:14;3.25;;;1.70;;
11865;SDS011;5992;52.744;6.898;2024-02-04T08:59:14;3.77;;;1.20;;
11865;SDS011;5992;52.744;6.898;2024-02-04T09:02:26;8.53;;;1.47;;
11865;SDS011;5992;52.744;6.898;2024-02-04T09:05:27;5.60;;;1.90;;
11865;SDS011;5992;52.744;6.898;2024-02-04T09:08:54;3.13;;;1.43;;
11865;SDS011;5992;52.744;6.898;2024-02-04T09:11:54;10.20;;;1.65;;
11865;SDS011;5992;52.744;6.898;2024-02-04T09:15:06;3.10;;;1.10;;
11865;SDS011;5992;52.744;6.898;2024-02-04T09:18:07;6.57;;;1.50;;
11865;SDS011;5992;52.744;6.898;2024-02-04T09:21:20;4.10;;;1.43;;
11865;SDS011;5992;52.744;6.898;2024-02-04T09:24:32;2.50;;;1.00;;
11865;SDS011;5992;52.744;6.898;2024-02-04T09:27:44;5.45;;;1.55;;
11865;SDS011;5992;52.744;6.898;2024-02-04T09:30:44;4.20;;;1.50;;
11865;SDS011;5992;52.744;6.898;2024-02-04T09:33:56;4.70;;;1.33;;
11865;SDS011;5992;52.744;6.898;2024-02-04T09:36:57;5.30;;;1.40;;
11865;SDS011;5992;52.744;6.898;2024-02-04T09:40:22;5.67;;;1.43;;
11865;SDS011;5992;52.744;6.898;2024-02-04T09:43:22;2.30;;;1.33;;
11865;SDS011;5992;52.744;6.898;2024-02-04T09:46:46;1.35;;;1.25;;
11865;SDS011;5992;52.744;6.898;2024-02-04T09:49:58;2.40;;;1.10;;
11865;SDS011;5992;52.744;6.898;2024-02-04T09:53:26;4.03;;;1.27;;
11865;SDS011;5992;52.744;6.898;2024-02-04T09:56:37;2.47;;;1.13;;
11865;SDS011;5992;52.744;6.898;2024-02-04T10:00:02;2.27;;;1.23;;
11865;SDS011;5992;52.744;6.898;2024-02-04T10:03:26;5.10;;;1.20;;
11865;SDS011;5992;52.744;6.898;2024-02-04T10:06:26;1.10;;;0.97;;
11865;SDS011;5992;52.744;6.898;2024-02-04T10:09:52;5.25;;;1.35;;
11865;SDS011;5992;52.744;6.898;2024-02-04T10:13:05;8.60;;;1.85;;
11865;SDS011;5992;52.744;6.898;2024-02-04T10:16:28;5.93;;;1.30;;
11865;SDS011;5992;52.744;6.898;2024-02-04T10:19:40;3.05;;;1.20;;
11865;SDS011;5992;52.744;6.898;2024-02-04T10:22:52;3.65;;;1.30;;
11865;SDS011;5992;52.744;6.898;2024-02-04T10:25:58;2.65;;;1.25;;
11865;SDS011;5992;52.744;6.898;2024-02-04T10:29:22;4.30;;;1.20;;
11865;SDS011;5992;52.744;6.898;2024-02-04T10:32:34;1.60;;;1.20;;
11865;SDS011;5992;52.744;6.898;2024-02-04T10:35:46;1.80;;;1.20;;
11865;SDS011;5992;52.744;6.898;2024-02-04T10:38:46;2.47;;;1.20;;
11865;SDS011;5992;52.744;6.898;2024-02-04T10:42:01;1.23;;;1.07;;
11865;SDS011;5992;52.744;6.898;2024-02-04T10:45:12;5.10;;;1.30;;
11865;SDS011;5992;52.744;6.898;2024-02-04T10:48:36;4.17;;;1.27;;
11865;SDS011;5992;52.744;6.898;2024-02-04T10:51:48;4.05;;;1.50;;
11865;SDS011;5992;52.744;6.898;2024-02-04T10:55:12;0.80;;;0.73;;
11865;SDS011;5992;52.744;6.898;2024-02-04T10:58:26;1.70;;;0.90;;
11865;SDS011;5992;52.744;6.898;2024-02-04T11:01:50;3.53;;;1.30;;
11865;SDS011;5992;52.744;6.898;2024-02-04T11:05:02;2.33;;;1.13;;
11865;SDS011;5992;52.744;6.898;2024-02-04T11:08:26;2.10;;;1.20;;
11865;SDS011;5992;52.744;6.898;2024-02-04T11:11:38;2.57;;;0.63;;
11865;SDS011;5992;52.744;6.898;2024-02-04T11:15:04;1.75;;;1.00;;
11865;SDS011;5992;52.744;6.898;2024-02-04T11:25:14;1.47;;;0.80;;
11865;SDS011;5992;52.744;6.898;2024-02-04T11:28:35;1.75;;;1.20;;
11865;SDS011;5992;52.744;6.898;2024-02-04T11:31:49;3.57;;;1.20;;
11865;SDS011;5992;52.744;6.898;2024-02-04T11:35:14;5.30;;;1.53;;
11865;SDS011;5992;52.744;6.898;2024-02-04T11:38:17;2.75;;;1.10;;
11865;SDS011;5992;52.744;6.898;2024-02-04T11:41:44;2.77;;;1.80;;
11865;SDS011;5992;52.744;6.898;2024-02-04T11:45:06;2.77;;;1.33;;
11865;SDS011;5992;52.744;6.898;2024-02-04T11:48:32;2.55;;;1.15;;
11865;SDS011;5992;52.744;6.898;2024-02-04T11:51:45;2.45;;;1.40;;
11865;SDS011;5992;52.744;6.898;2024-02-04T11:55:13;6.80;;;2.00;;
11865;SDS011;5992;52.744;6.898;2024-02-04T11:58:26;4.60;;;1.50;;
11865;SDS011;5992;52.744;6.898;2024-02-04T12:01:50;2.03;;;1.23;;
11865;SDS011;5992;52.744;6.898;2024-02-04T12:05:15;1.83;;;1.17;;
11865;SDS011;5992;52.744;6.898;2024-02-04T12:08:28;1.33;;;1.23;;
11865;SDS011;5992;52.744;6.898;2024-02-04T12:11:52;3.75;;;1.30;;
11865;SDS011;5992;52.744;6.898;2024-02-04T12:15:04;1.30;;;1.20;;
11865;SDS011;5992;52.744;6.898;2024-02-04T12:18:29;2.50;;;1.20;;
11865;SDS011;5992;52.744;6.898;2024-02-04T12:21:30;2.50;;;1.07;;
11865;SDS011;5992;52.744;6.898;2024-02-04T12:24:56;2.70;;;1.27;;
11865;SDS011;5992;52.744;6.898;2024-02-04T12:28:08;1.73;;;1.27;;
11865;SDS011;5992;52.744;6.898;2024-02-04T12:31:33;1.75;;;1.20;;
11865;SDS011;5992;52.744;6.898;2024-02-04T12:34:33;2.25;;;1.60;;
11865;SDS011;5992;52.744;6.898;2024-02-04T12:37:53;2.10;;;1.10;;
11865;SDS011;5992;52.744;6.898;2024-02-04T12:41:05;3.40;;;0.80;;
11865;SDS011;5992;52.744;6.898;2024-02-04T12:44:17;2.73;;;1.10;;
11865;SDS011;5992;52.744;6.898;2024-02-04T12:47:29;1.47;;;0.90;;
11865;SDS011;5992;52.744;6.898;2024-02-04T12:50:41;1.27;;;0.80;;
11865;SDS011;5992;52.744;6.898;2024-02-04T12:53:42;2.13;;;1.00;;
11865;SDS011;5992;52.744;6.898;2024-02-04T12:57:06;2.95;;;1.45;;
11865;SDS011;5992;52.744;6.898;2024-02-04T13:00:07;0.97;;;0.80;;
11865;SDS011;5992;52.744;6.898;2024-02-04T13:03:24;3.50;;;1.03;;
11865;SDS011;5992;52.744;6.898;2024-02-04T13:06:37;2.33;;;0.97;;
11865;SDS011;5992;52.744;6.898;2024-02-04T13:10:03;1.90;;;0.95;;
11865;SDS011;5992;52.744;6.898;2024-02-04T13:13:16;1.47;;;0.73;;
11865;SDS011;5992;52.744;6.898;2024-02-04T13:16:40;5.13;;;0.70;;
11865;SDS011;5992;52.744;6.898;2024-02-04T13:19:52;2.90;;;0.85;;
11865;SDS011;5992;52.744;6.898;2024-02-04T13:23:05;3.50;;;1.00;;
11865;SDS011;5992;52.744;6.898;2024-02-04T13:26:06;1.65;;;0.90;;
11865;SDS011;5992;52.744;6.898;2024-02-04T13:29:32;2.95;;;0.90;;
11865;SDS011;5992;52.744;6.898;2024-02-04T13:32:32;3.50;;;1.15;;
11865;SDS011;5992;52.744;6.898;2024-02-04T13:35:44;2.15;;;0.85;;
11865;SDS011;5992;52.744;6.898;2024-02-04T13:38:44;2.20;;;0.77;;
11865;SDS011;5992;52.744;6.898;2024-02-04T13:41:57;1.50;;;0.60;;
11865;SDS011;5992;52.744;6.898;2024-02-04T13:45:10;1.20;;;0.57;;
11865;SDS011;5992;52.744;6.898;2024-02-04T13:48:34;2.47;;;0.87;;
11865;SDS011;5992;52.744;6.898;2024-02-04T13:51:35;3.20;;;1.10;;
11865;SDS011;5992;52.744;6.898;2024-02-04T13:54:48;4.20;;;0.80;;
11865;SDS011;5992;52.744;6.898;2024-02-04T13:58:02;2.87;;;0.90;;
11865;SDS011;5992;52.744;6.898;2024-02-04T14:01:26;2.23;;;1.03;;
11865;SDS011;5992;52.744;6.898;2024-02-04T14:04:38;1.90;;;0.80;;
11865;SDS011;5992;52.744;6.898;2024-02-04T14:07:39;2.45;;;0.85;;
11865;SDS011;5992;52.744;6.898;2024-02-04T14:10:51;1.65;;;0.75;;
11865;SDS011;5992;52.744;6.898;2024-02-04T14:13:52;2.45;;;0.80;;
11865;SDS011;5992;52.744;6.898;2024-02-04T14:17:17;0.50;;;0.50;;
11865;SDS011;5992;52.744;6.898;2024-02-04T14:20:29;0.70;;;0.63;;
11865;SDS011;5992;52.744;6.898;2024-02-04T14:23:41;2.00;;;0.97;;
11865;SDS011;5992;52.744;6.898;2024-02-04T14:26:41;0.60;;;0.60;;
11865;SDS011;5992;52.744;6.898;2024-02-04T14:29:54;0.70;;;0.70;;
11865;SDS011;5992;52.744;6.898;2024-02-04T14:33:08;2.45;;;1.10;;
11865;SDS011;5992;52.744;6.898;2024-02-04T14:36:20;0.53;;;0.53;;
11865;SDS011;5992;52.744;6.898;2024-02-04T14:39:20;0.77;;;0.63;;
11865;SDS011;5992;52.744;6.898;2024-02-04T14:42:32;2.13;;;1.50;;
11865;SDS011;5992;52.744;6.898;2024-02-04T14:45:45;2.20;;;0.70;;
11865;SDS011;5992;52.744;6.898;2024-02-04T14:49:11;1.23;;;0.83;;
11865;SDS011;5992;52.744;6.898;2024-02-04T14:52:23;1.00;;;0.70;;
11865;SDS011;5992;52.744;6.898;2024-02-04T14:55:36;3.90;;;1.15;;
11865;SDS011;5992;52.744;6.898;2024-02-04T14:58:36;3.00;;;0.90;;
11865;SDS011;5992;52.744;6.898;2024-02-04T15:01:49;2.23;;;0.77;;
11865;SDS011;5992;52.744;6.898;2024-02-04T15:05:02;0.83;;;0.80;;
11865;SDS011;5992;52.744;6.898;2024-02-04T15:08:15;0.73;;;0.57;;
11865;SDS011;5992;52.744;6.898;2024-02-04T15:11:15;2.50;;;0.90;;
11865;SDS011;5992;52.744;6.898;2024-02-04T15:14:28;2.90;;;1.00;;
11865;SDS011;5992;52.744;6.898;2024-02-04T15:17:42;1.57;;;0.53;;
11865;SDS011;5992;52.744;6.898;2024-02-04T15:21:06;5.13;;;1.10;;
11865;SDS011;5992;52.744;6.898;2024-02-04T15:24:08;4.40;;;1.17;;
11865;SDS011;5992;52.744;6.898;2024-02-04T15:27:20;1.33;;;1.00;;
11865;SDS011;5992;52.744;6.898;2024-02-04T15:30:20;2.65;;;1.40;;
11865;SDS011;5992;52.744;6.898;2024-02-04T15:33:35;3.35;;;1.00;;
11865;SDS011;5992;52.744;6.898;2024-02-04T15:36:47;0.85;;;0.85;;
11865;SDS011;5992;52.744;6.898;2024-02-04T15:40:03;1.33;;;1.23;;
11865;SDS011;5992;52.744;6.898;2024-02-04T15:43:03;1.10;;;0.97;;
11865;SDS011;5992;52.744;6.898;2024-02-04T15:46:18;1.87;;;1.27;;
11865;SDS011;5992;52.744;6.898;2024-02-04T15:49:32;1.40;;;1.30;;
11865;SDS011;5992;52.744;6.898;2024-02-04T15:52:56;2.20;;;1.80;;
11865;SDS011;5992;52.744;6.898;2024-02-04T15:55:57;2.10;;;1.50;;
11865;SDS011;5992;52.744;6.898;2024-02-04T15:59:11;2.00;;;1.40;;
11865;SDS011;5992;52.744;6.898;2024-02-04T16:02:22;2.50;;;1.80;;
11865;SDS011;5992;52.744;6.898;2024-02-04T16:05:40;2.70;;;1.47;;
11865;SDS011;5992;52.744;6.898;2024-02-04T16:08:52;1.90;;;1.80;;
11865;SDS011;5992;52.744;6.898;2024-02-04T16:12:06;4.70;;;2.20;;
11865;SDS011;5992;52.744;6.898;2024-02-04T16:15:19;3.05;;;1.95;;
11865;SDS011;5992;52.744;6.898;2024-02-04T16:18:43;2.70;;;2.00;;
11865;SDS011;5992;52.744;6.898;2024-02-04T16:21:58;4.47;;;2.13;;
11865;SDS011;5992;52.744;6.898;2024-02-04T16:25:23;4.23;;;2.20;;
11865;SDS011;5992;52.744;6.898;2024-02-04T16:28:24;5.20;;;3.40;;
11865;SDS011;5992;52.744;6.898;2024-02-04T16:31:36;2.77;;;1.90;;
11865;SDS011;5992;52.744;6.898;2024-02-04T16:34:36;2.33;;;2.10;;
11865;SDS011;5992;52.744;6.898;2024-02-04T16:37:50;3.10;;;1.80;;
11865;SDS011;5992;52.744;6.898;2024-02-04T16:41:05;2.57;;;2.33;;
11865;SDS011;5992;52.744;6.898;2024-02-04T16:44:17;4.73;;;2.23;;
11865;SDS011;5992;52.744;6.898;2024-02-04T16:47:17;3.80;;;2.07;;
11865;SDS011;5992;52.744;6.898;2024-02-04T16:50:41;2.40;;;1.47;;
11865;SDS011;5992;52.744;6.898;2024-02-04T16:53:43;1.95;;;1.85;;
11865;SDS011;5992;52.744;6.898;2024-02-04T16:57:07;2.45;;;1.80;;
11865;SDS011;5992;52.744;6.898;2024-02-04T17:00:08;2.33;;;1.80;;
11865;SDS011;5992;52.744;6.898;2024-02-04T17:03:21;3.33;;;1.83;;
11865;SDS011;5992;52.744;6.898;2024-02-04T17:06:22;2.40;;;1.97;;
11865;SDS011;5992;52.744;6.898;2024-02-04T17:09:48;2.43;;;2.10;;
11865;SDS011;5992;52.744;6.898;2024-02-04T17:13:00;3.17;;;2.13;;
11865;SDS011;5992;52.744;6.898;2024-02-04T17:16:14;2.15;;;2.05;;
11865;SDS011;5992;52.744;6.898;2024-02-04T17:19:27;5.40;;;2.40;;
11865;SDS011;5992;52.744;6.898;2024-02-04T17:22:50;2.27;;;2.07;;
11865;SDS011;5992;52.744;6.898;2024-02-04T17:26:05;2.60;;;1.97;;
11865;SDS011;5992;52.744;6.898;2024-02-04T17:29:30;4.03;;;1.87;;
11865;SDS011;5992;52.744;6.898;2024-02-04T17:32:31;2.90;;;2.30;;
11865;SDS011;5992;52.744;6.898;2024-02-04T17:35:44;3.05;;;2.00;;
11865;SDS011;5992;52.744;6.898;2024-02-04T17:38:45;3.70;;;2.30;;
11865;SDS011;5992;52.744;6.898;2024-02-04T17:41:59;3.45;;;2.00;;
11865;SDS011;5992;52.744;6.898;2024-02-04T17:45:14;2.07;;;1.97;;
11865;SDS011;5992;52.744;6.898;2024-02-04T17:48:26;5.23;;;2.23;;
11865;SDS011;5992;52.744;6.898;2024-02-04T17:51:26;3.73;;;2.40;;
11865;SDS011;5992;52.744;6.898;2024-02-04T17:54:41;2.10;;;1.90;;
11865;SDS011;5992;52.744;6.898;2024-02-04T17:57:42;4.57;;;2.10;;
11865;SDS011;5992;52.744;6.898;2024-02-04T18:01:08;4.63;;;2.30;;
11865;SDS011;5992;52.744;6.898;2024-02-04T18:04:20;4.00;;;2.10;;
11865;SDS011;5992;52.744;6.898;2024-02-04T18:07:20;4.23;;;2.27;;
11865;SDS011;5992;52.744;6.898;2024-02-04T18:10:33;3.70;;;2.47;;
11865;SDS011;5992;52.744;6.898;2024-02-04T18:13:46;3.10;;;2.80;;
11865;SDS011;5992;52.744;6.898;2024-02-04T18:17:11;7.33;;;2.93;;
11865;SDS011;5992;52.744;6.898;2024-02-04T18:20:11;4.10;;;2.60;;
11865;SDS011;5992;52.744;6.898;2024-02-04T18:23:36;4.10;;;2.53;;
11865;SDS011;5992;52.744;6.898;2024-02-04T18:26:36;4.93;;;2.77;;
11865;SDS011;5992;52.744;6.898;2024-02-04T18:30:01;4.87;;;2.87;;
11865;SDS011;5992;52.744;6.898;2024-02-04T18:33:15;4.95;;;3.30;;
11865;SDS011;5992;52.744;6.898;2024-02-04T18:36:39;4.23;;;2.83;;
11865;SDS011;5992;52.744;6.898;2024-02-04T18:39:39;3.93;;;2.63;;
11865;SDS011;5992;52.744;6.898;2024-02-04T18:42:52;5.80;;;3.00;;
11865;SDS011;5992;52.744;6.898;2024-02-04T18:45:53;4.43;;;2.23;;
11865;SDS011;5992;52.744;6.898;2024-02-04T18:49:18;6.33;;;2.87;;
11865;SDS011;5992;52.744;6.898;2024-02-04T18:52:18;6.30;;;2.70;;
11865;SDS011;5992;52.744;6.898;2024-02-04T18:55:31;6.63;;;2.40;;
11865;SDS011;5992;52.744;6.898;2024-02-04T18:58:31;5.27;;;2.33;;
11865;SDS011;5992;52.744;6.898;2024-02-04T19:01:56;5.55;;;2.00;;
11865;SDS011;5992;52.744;6.898;2024-02-04T19:05:09;3.20;;;2.10;;
11865;SDS011;5992;52.744;6.898;2024-02-04T19:08:21;3.27;;;2.60;;
11865;SDS011;5992;52.744;6.898;2024-02-04T19:11:21;5.87;;;2.20;;
11865;SDS011;5992;52.744;6.898;2024-02-04T19:14:34;6.55;;;2.20;;
11865;SDS011;5992;52.744;6.898;2024-02-04T19:17:35;3.50;;;2.50;;
11865;SDS011;5992;52.744;6.898;2024-02-04T19:21:00;6.80;;;2.53;;
11865;SDS011;5992;52.744;6.898;2024-02-04T19:24:00;4.67;;;2.03;;
11865;SDS011;5992;52.744;6.898;2024-02-04T19:27:12;4.60;;;1.73;;
11865;SDS011;5992;52.744;6.898;2024-02-04T19:30:24;4.03;;;2.47;;
11865;SDS011;5992;52.744;6.898;2024-02-04T19:33:49;8.70;;;2.17;;
11865;SDS011;5992;52.744;6.898;2024-02-04T19:37:01;3.70;;;2.10;;
11865;SDS011;5992;52.744;6.898;2024-02-04T19:40:13;4.97;;;2.70;;
11865;SDS011;5992;52.744;6.898;2024-02-04T19:43:25;8.57;;;2.30;;